Time;durP1;ratioP1;P1;durP2;ratioP2;P2;SDS_P1;SDS_P2;PMS_P1;PMS_P2;Temp;Humidity;BMP_temperature;BMP_pressure;BME280_temperature;BME280_humidity;BME280_pressure;Samples;Min_cycle;Max_cycle;Signal;HPM_P1;HPM_P2
2023/12/23 00:01:24;;;;;;;7.60;1.38;;;;;;;4.46;100.00;100657.38;4991166;28;20052;-74
2023/12/23 00:04:10;;;;;;;5.65;1.27;;;;;;;4.46;100.00;100662.63;5015689;28;20034;-74
2023/12/23 00:06:55;;;;;;;5.10;1.27;;;;;;;4.49;100.00;100659.06;4988908;28;20042;-73
2023/12/23 00:09:41;;;;;;;9.95;1.60;;;;;;;4.50;100.00;100650.31;5015987;28;20120;-73
2023/12/23 00:12:26;;;;;;;10.13;1.30;;;;;;;4.51;100.00;100651.19;5016403;28;20076;-73
2023/12/23 00:15:12;;;;;;;6.07;1.10;;;;;;;4.51;100.00;100659.06;5014104;28;20053;-73
2023/12/23 00:17:57;;;;;;;12.20;1.92;;;;;;;4.51;100.00;100659.06;4991616;28;20123;-73
2023/12/23 00:20:42;;;;;;;8.13;1.40;;;;;;;4.52;100.00;100655.53;4991042;28;20507;-73
2023/12/23 00:23:28;;;;;;;7.00;2.13;;;;;;;4.55;100.00;100643.22;4988381;28;20133;-75
2023/12/23 00:26:13;;;;;;;8.98;1.55;;;;;;;4.57;100.00;100640.56;4991368;28;20049;-74
2023/12/23 00:28:59;;;;;;;8.00;1.88;;;;;;;4.58;100.00;100639.66;4990270;28;20543;-73
2023/12/23 00:31:44;;;;;;;10.68;1.60;;;;;;;4.59;100.00;100652.72;4988470;28;20156;-73
2023/12/23 00:34:29;;;;;;;12.80;1.50;;;;;;;4.62;100.00;100649.16;4990627;28;20697;-74
2023/12/23 00:37:15;;;;;;;5.95;1.30;;;;;;;4.64;100.00;100655.25;5015231;28;20095;-74
2023/12/23 00:40:00;;;;;;;7.57;1.27;;;;;;;4.66;100.00;100649.94;4987602;28;20078;-74
2023/12/23 00:42:45;;;;;;;4.10;1.05;;;;;;;4.67;100.00;100639.41;5015048;28;20102;-74
2023/12/23 00:45:31;;;;;;;10.30;1.38;;;;;;;4.68;100.00;100649.00;5016172;28;20050;-74
2023/12/23 00:48:26;;;;;;;8.75;1.55;;;;;;;4.70;100.00;100642.00;4990406;28;20061;-75
2023/12/23 00:51:11;;;;;;;4.78;1.13;;;;;;;4.70;100.00;100652.47;4991648;28;20038;-75
2023/12/23 00:53:57;;;;;;;5.15;1.20;;;;;;;4.73;100.00;100647.16;4991212;28;20046;-74
2023/12/23 00:56:43;;;;;;;7.50;1.80;;;;;;;4.75;100.00;100644.50;5000289;28;20120;-75
2023/12/23 00:59:28;;;;;;;7.22;1.23;;;;;;;4.79;100.00;100645.28;4990632;28;20034;-75
2023/12/23 01:02:14;;;;;;;5.50;1.08;;;;;;;4.79;100.00;100640.03;4989853;28;21992;-74
2023/12/23 01:05:00;;;;;;;5.28;1.02;;;;;;;4.81;100.00;100635.59;4989946;28;20500;-75
2023/12/23 01:07:45;;;;;;;5.50;1.10;;;;;;;4.83;100.00;100636.41;4989110;28;20515;-75
2023/12/23 01:10:31;;;;;;;8.13;1.30;;;;;;;4.82;100.00;100637.31;4989506;28;20528;-75
2023/12/23 01:13:16;;;;;;;9.13;1.48;;;;;;;4.83;100.00;100632.03;5014613;28;20493;-75
2023/12/23 01:16:07;;;;;;;6.72;0.95;;;;;;;4.83;100.00;100625.91;4989248;28;20444;-74
2023/12/23 01:18:52;;;;;;;6.18;1.15;;;;;;;4.82;100.00;100632.94;4989800;28;20042;-74
2023/12/23 01:21:37;;;;;;;3.58;1.00;;;;;;;4.82;100.00;100626.81;4990972;28;20053;-75
2023/12/23 01:24:23;;;;;;;2.80;1.20;;;;;;;4.83;100.00;100631.16;4997317;28;20137;-74
2023/12/23 01:27:08;;;;;;;11.13;1.38;;;;;;;4.81;100.00;100627.72;4988360;28;20165;-74
2023/12/23 01:29:54;;;;;;;2.58;0.95;;;;;;;4.79;100.00;100619.88;4989919;28;20042;-74
2023/12/23 01:32:40;;;;;;;8.68;1.17;;;;;;;4.76;100.00;100618.19;5013140;28;20053;-74
2023/12/23 01:35:25;;;;;;;4.68;1.10;;;;;;;4.72;100.00;100613.94;4989551;28;20049;-74
2023/12/23 01:38:11;;;;;;;3.42;1.10;;;;;;;4.73;100.00;100609.53;5014047;28;20060;-75
2023/12/23 01:40:56;;;;;;;4.32;1.15;;;;;;;4.73;100.00;100614.78;4991294;28;20030;-74
2023/12/23 01:43:42;;;;;;;4.97;1.00;;;;;;;4.73;100.00;100612.16;4994135;28;20057;-73
2023/12/23 01:46:27;;;;;;;4.15;0.90;;;;;;;4.73;100.00;100599.94;4993425;28;20075;-74
2023/12/23 01:49:13;;;;;;;7.53;1.33;;;;;;;4.70;100.00;100615.75;4991494;28;20128;-73
2023/12/23 01:51:59;;;;;;;2.78;0.93;;;;;;;4.66;100.00;100603.59;4993103;28;20042;-74
2023/12/23 01:54:44;;;;;;;4.00;0.98;;;;;;;4.60;100.00;100609.88;5001809;28;20041;-74
2023/12/23 01:57:30;;;;;;;5.78;1.10;;;;;;;4.55;100.00;100601.25;4990718;28;20049;-76
2023/12/23 02:00:15;;;;;;;3.78;0.80;;;;;;;4.51;100.00;100604.00;4993263;28;20050;-75
2023/12/23 02:03:01;;;;;;;10.38;1.23;;;;;;;4.44;100.00;100598.91;5017126;28;20388;-74
2023/12/23 02:05:47;;;;;;;5.88;1.27;;;;;;;4.42;100.00;100598.03;4990326;28;20038;-74
2023/12/23 02:08:32;;;;;;;6.10;1.27;;;;;;;4.40;100.00;100609.50;4993247;28;20046;-73
2023/12/23 02:11:43;;;;;;;7.15;1.40;;;;;;;4.38;100.00;100601.66;4993275;28;20187;-73
2023/12/23 02:14:54;;;;;;;3.00;0.95;;;;;;;4.35;100.00;100601.72;5012922;28;20050;-74
2023/12/23 02:17:40;;;;;;;4.57;0.90;;;;;;;4.33;100.00;100596.53;4992588;28;20037;-74
2023/12/23 02:20:26;;;;;;;1.48;0.85;;;;;;;4.31;100.00;100594.84;4993042;28;20044;-74
2023/12/23 02:23:13;;;;;;;5.28;1.02;;;;;;;4.32;100.00;100583.44;4984926;28;20061;-74
2023/12/23 02:26:00;;;;;;;6.43;1.02;;;;;;;4.32;100.00;100573.81;4993033;28;20041;-73
2023/12/23 02:28:48;;;;;;;9.20;1.13;;;;;;;4.32;100.00;100576.44;4996293;28;20123;-74
2023/12/23 02:31:34;;;;;;;5.00;1.00;;;;;;;4.33;100.00;100577.31;4988145;28;20070;-74
2023/12/23 02:34:20;;;;;;;3.33;1.00;;;;;;;4.33;100.00;100572.06;4994393;28;20652;-74
2023/12/23 02:37:05;;;;;;;2.88;0.93;;;;;;;4.32;100.00;100565.09;5020953;28;20034;-72
2023/12/23 02:39:51;;;;;;;4.82;1.15;;;;;;;4.32;100.00;100558.06;4994843;28;20045;-74
2023/12/23 02:42:36;;;;;;;3.58;0.80;;;;;;;4.30;100.00;100548.56;4996877;28;20380;-73
2023/12/23 02:45:23;;;;;;;7.35;1.17;;;;;;;4.30;100.00;100540.69;4996683;28;20067;-73
2023/12/23 02:48:09;;;;;;;6.93;1.00;;;;;;;4.29;100.00;100541.56;4995078;28;20057;-73
2023/12/23 02:50:54;;;;;;;4.35;1.15;;;;;;;4.30;100.00;100538.06;4995221;28;20144;-74
2023/12/23 02:53:40;;;;;;;6.32;1.00;;;;;;;4.29;100.00;100536.31;4995690;28;20045;-73
2023/12/23 02:56:25;;;;;;;6.93;1.00;;;;;;;4.29;100.00;100526.72;5018956;28;20108;-74
2023/12/23 02:59:11;;;;;;;3.15;0.90;;;;;;;4.30;100.00;100509.25;4999435;28;20131;-75
2023/12/23 03:02:01;;;;;;;6.03;0.95;;;;;;;4.29;100.00;100505.75;4998709;28;20065;-74
2023/12/23 03:04:46;;;;;;;2.67;1.10;;;;;;;4.30;100.00;100502.22;5018924;28;20580;-74
2023/12/23 03:07:31;;;;;;;4.38;1.40;;;;;;;4.30;100.00;100496.97;5021621;28;20035;-75
2023/12/23 03:10:17;;;;;;;3.67;1.13;;;;;;;4.29;100.00;100492.66;4996614;28;20037;-73
2023/12/23 03:13:03;;;;;;;5.30;1.00;;;;;;;4.30;100.00;100493.53;4995926;28;20282;-74
2023/12/23 03:15:48;;;;;;;6.95;1.13;;;;;;;4.30;100.00;100491.75;4994966;28;20050;-73
2023/12/23 03:18:34;;;;;;;1.92;1.00;;;;;;;4.30;100.00;100469.94;4995349;28;20076;-74
2023/12/23 03:21:22;;;;;;;6.75;1.15;;;;;;;4.30;100.00;100467.31;4993140;28;20049;-74
2023/12/23 03:24:08;;;;;;;5.38;1.02;;;;;;;4.30;100.00;100448.97;4995287;28;20053;-73
2023/12/23 03:26:53;;;;;;;4.70;0.88;;;;;;;4.29;100.00;100450.72;4996548;28;20131;-73
2023/12/23 03:29:39;;;;;;;4.75;0.85;;;;;;;4.29;100.00;100440.22;4994018;28;20112;-73
2023/12/23 03:32:24;;;;;;;6.95;1.10;;;;;;;4.28;100.00;100430.66;4995290;28;20042;-73
2023/12/23 03:35:09;;;;;;;5.22;1.02;;;;;;;4.28;100.00;100414.91;4995703;28;20053;-73
2023/12/23 03:37:55;;;;;;;6.80;1.05;;;;;;;4.30;100.00;100407.03;4995750;28;20138;-73
2023/12/23 03:40:41;;;;;;;6.40;1.13;;;;;;;4.30;100.00;100391.31;4996163;28;20042;-73
2023/12/23 03:43:26;;;;;;;3.17;1.10;;;;;;;4.30;100.00;100391.31;4995271;28;20034;-73
2023/12/23 03:46:12;;;;;;;1.80;0.80;;;;;;;4.31;100.00;100391.25;4995030;28;20123;-74
2023/12/23 03:48:57;;;;;;;5.63;1.00;;;;;;;4.33;100.00;100385.97;4995200;28;20036;-73
2023/12/23 03:51:43;;;;;;;4.05;0.88;;;;;;;4.32;100.00;100371.16;4990413;28;20084;-73
2023/12/23 03:54:28;;;;;;;8.88;1.10;;;;;;;4.33;100.00;100368.50;4995995;28;20176;-73
2023/12/23 03:57:13;;;;;;;1.83;0.73;;;;;;;4.35;100.00;100358.81;5011725;23;20060;-73
2023/12/23 03:59:59;;;;;;;5.22;0.88;;;;;;;4.37;100.00;100355.28;4979225;28;20049;-73
2023/12/23 04:02:44;;;;;;;2.30;1.25;;;;;;;4.37;100.00;100352.66;4972302;28;20046;-73
2023/12/23 04:05:30;;;;;;;2.65;0.80;;;;;;;4.38;100.00;100349.13;4997969;28;20060;-74
2023/12/23 04:08:16;;;;;;;2.63;0.68;;;;;;;4.39;100.00;100329.88;4972156;28;20370;-74
2023/12/23 04:11:02;;;;;;;5.20;0.82;;;;;;;4.41;100.00;100342.03;4973322;28;20045;-74
2023/12/23 04:13:48;;;;;;;2.65;0.75;;;;;;;4.41;100.00;100331.56;4972646;28;20065;-74
2023/12/23 04:16:33;;;;;;;8.90;1.15;;;;;;;4.43;100.00;100315.81;4972444;28;22179;-74
2023/12/23 04:19:19;;;;;;;3.42;0.80;;;;;;;4.44;100.00;100322.75;4973174;28;20039;-74
2023/12/23 04:22:04;;;;;;;3.10;0.90;;;;;;;4.45;100.00;100311.38;4972557;28;20606;-74
2023/12/23 04:24:49;;;;;;;2.40;0.80;;;;;;;4.47;100.00;100309.59;4983887;28;20493;-74
2023/12/23 04:27:35;;;;;;;4.28;0.95;;;;;;;4.48;100.00;100274.59;4973209;28;20053;-74
2023/12/23 04:30:20;;;;;;;6.43;0.80;;;;;;;4.49;100.00;100265.81;4971843;28;20046;-73
2023/12/23 04:33:06;;;;;;;5.35;1.00;;;;;;;4.48;100.00;100267.56;4973908;28;20065;-73
2023/12/23 04:35:51;;;;;;;2.33;0.95;;;;;;;4.50;100.00;100280.63;4967601;28;20049;-73
2023/12/23 04:38:39;;;;;;;0.80;0.80;;;;;;;4.52;100.00;100270.13;4973485;28;21046;-73
2023/12/23 04:41:25;;;;;;;2.58;0.80;;;;;;;4.53;100.00;100256.94;4973930;28;20048;-73
2023/12/23 04:44:10;;;;;;;1.50;0.70;;;;;;;4.55;100.00;100244.66;4974457;28;20216;-73
2023/12/23 04:46:56;;;;;;;1.35;0.68;;;;;;;4.56;100.00;100235.03;4999540;28;20053;-72
2023/12/23 04:49:41;;;;;;;1.02;0.63;;;;;;;4.57;100.00;100234.13;4958047;28;20050;-74
2023/12/23 04:52:27;;;;;;;0.85;0.50;;;;;;;4.57;100.00;100221.88;4984671;28;20042;-73
2023/12/23 04:55:12;;;;;;;0.80;0.65;;;;;;;4.58;100.00;100209.63;4997922;28;20050;-72
2023/12/23 04:57:58;;;;;;;0.60;0.60;;;;;;;4.59;100.00;100217.44;4972807;28;20493;-74
2023/12/23 05:00:43;;;;;;;2.13;0.80;;;;;;;4.59;100.00;100208.72;4969840;28;20089;-73
2023/12/23 05:03:33;;;;;;;0.60;0.60;;;;;;;4.60;100.00;100207.81;4971565;28;20640;-72
2023/12/23 05:06:19;;;;;;;0.65;0.63;;;;;;;4.60;100.00;100192.09;4972138;28;20385;-73
2023/12/23 05:09:05;;;;;;;0.70;0.57;;;;;;;4.62;100.00;100191.13;4970677;28;20054;-74
2023/12/23 05:11:51;;;;;;;0.60;0.60;;;;;;;4.65;100.00;100189.31;4971916;28;20053;-74
2023/12/23 05:14:36;;;;;;;0.60;0.60;;;;;;;4.69;100.00;100183.91;4974754;28;20045;-74
2023/12/23 05:17:21;;;;;;;1.05;0.70;;;;;;;4.78;100.00;100181.94;4973365;28;22063;-73
2023/12/23 05:20:08;;;;;;;1.50;1.05;;;;;;;4.87;100.00;100165.88;4973154;28;20295;-72
2023/12/23 05:22:53;;;;;;;4.90;1.33;;;;;;;5.01;100.00;100158.41;4973940;28;20097;-73
2023/12/23 05:25:38;;;;;;;7.25;1.80;;;;;;;5.19;100.00;100150.84;4970527;28;20394;-73
2023/12/23 05:28:24;;;;;;;11.57;2.80;;;;;;;5.55;100.00;100142.59;4973589;28;20382;-73
2023/12/23 05:31:09;;;;;;;15.43;2.80;;;;;;;6.03;100.00;100126.88;4974541;28;20057;-71
2023/12/23 05:33:56;;;;;;;12.10;3.10;;;;;;;6.38;100.00;100126.44;4987807;28;20038;-73
2023/12/23 05:36:41;;;;;;;12.65;2.78;;;;;;;6.59;100.00;100123.88;4977323;28;20775;-73
2023/12/23 05:39:27;;;;;;;14.77;2.72;;;;;;;6.73;100.00;100108.38;4977597;28;20397;-72
2023/12/23 05:42:12;;;;;;;13.18;3.00;;;;;;;6.84;100.00;100113.19;4975042;28;20038;-72
2023/12/23 05:44:57;;;;;;;21.20;3.13;;;;;;;6.91;100.00;100103.25;4976564;28;20050;-72
2023/12/23 05:47:43;;;;;;;15.80;3.65;;;;;;;6.98;100.00;100115.22;4976106;28;20042;-72
2023/12/23 05:50:28;;;;;;;23.73;3.63;;;;;;;7.03;100.00;100117.69;4972913;28;20046;-71
2023/12/23 05:53:14;;;;;;;17.27;3.20;;;;;;;7.08;100.00;100099.91;4976523;28;20072;-73
2023/12/23 05:56:03;;;;;;;13.85;3.20;;;;;;;7.13;100.00;100090.03;4973554;28;20055;-72
2023/12/23 05:58:48;;;;;;;19.30;2.97;;;;;;;7.18;100.00;100106.50;4989492;28;20069;-73
2023/12/23 06:01:33;;;;;;;9.27;3.13;;;;;;;7.25;100.00;100108.88;4977449;28;20054;-72
2023/12/23 06:04:19;;;;;;;14.50;2.83;;;;;;;7.29;100.00;100065.66;4974019;28;20117;-73
2023/12/23 06:07:04;;;;;;;19.77;3.38;;;;;;;7.37;100.00;100110.97;4977098;28;20038;-73
2023/12/23 06:09:50;;;;;;;16.65;2.90;;;;;;;7.40;100.00;100118.72;4975215;28;20043;-74
2023/12/23 06:12:35;;;;;;;17.95;3.15;;;;;;;7.45;100.00;100066.72;4972014;28;20042;-74
2023/12/23 06:15:20;;;;;;;11.80;3.63;;;;;;;7.52;100.00;100116.50;4977911;28;20149;-74
2023/12/23 06:18:06;;;;;;;10.18;3.15;;;;;;;7.58;100.00;100087.25;4977577;28;20065;-73
2023/12/23 06:20:54;;;;;;;17.48;3.40;;;;;;;7.64;100.00;100068.53;4973730;28;20066;-74
2023/12/23 06:23:40;;;;;;;18.38;3.20;;;;;;;7.67;100.00;100099.97;4976349;28;20077;-72
2023/12/23 06:26:25;;;;;;;23.27;3.28;;;;;;;7.72;100.00;100111.19;4977021;28;20054;-73
2023/12/23 06:29:11;;;;;;;16.17;3.42;;;;;;;7.78;100.00;100067.03;4978430;28;20042;-72
2023/12/23 06:32:00;;;;;;;16.73;3.50;;;;;;;7.81;100.00;100066.88;4979618;28;20046;-73
2023/12/23 06:34:45;;;;;;;18.95;4.10;;;;;;;7.84;100.00;100093.94;4978912;28;20073;-72
2023/12/23 06:37:31;;;;;;;17.92;2.72;;;;;;;7.88;100.00;100089.38;4987958;28;20042;-74
2023/12/23 06:40:16;;;;;;;12.95;3.08;;;;;;;7.91;100.00;100098.94;4980010;28;20677;-73
2023/12/23 06:43:01;;;;;;;17.02;3.38;;;;;;;7.91;100.00;100091.91;4979600;28;20129;-73
2023/12/23 06:45:47;;;;;;;17.42;2.55;;;;;;;7.91;100.00;100083.13;4987366;28;20046;-72
2023/12/23 06:48:35;;;;;;;17.70;3.45;;;;;;;7.91;100.00;100110.34;4975369;28;20956;-72
2023/12/23 06:51:20;;;;;;;20.70;3.35;;;;;;;7.92;100.00;100098.88;4963049;28;20054;-72
2023/12/23 06:54:06;;;;;;;15.57;3.22;;;;;;;7.94;100.00;100098.78;4976664;28;20042;-73
2023/12/23 06:56:51;;;;;;;12.85;2.75;;;;;;;7.94;100.00;100128.66;4975811;28;20420;-72
2023/12/23 06:59:37;;;;;;;19.33;3.55;;;;;;;7.95;100.00;100100.53;4979924;28;20042;-70
2023/12/23 07:02:22;;;;;;;17.73;3.17;;;;;;;7.95;100.00;100124.25;4976654;28;20042;-73
2023/12/23 07:05:08;;;;;;;16.95;3.08;;;;;;;7.93;100.00;100113.75;4977841;28;20042;-72
2023/12/23 07:07:53;;;;;;;13.07;3.13;;;;;;;7.91;100.00;100110.34;4976380;28;20127;-72
2023/12/23 07:10:38;;;;;;;13.02;2.70;;;;;;;7.92;100.00;100119.09;4975774;28;20051;-73
2023/12/23 07:13:24;;;;;;;15.85;3.53;;;;;;;7.93;100.00;100116.41;4977500;28;20042;-73
2023/12/23 07:16:09;;;;;;;8.75;2.25;;;;;;;7.95;100.00;100111.06;4973655;28;20049;-73
2023/12/23 07:18:55;;;;;;;18.23;3.03;;;;;;;7.95;100.00;100114.53;4975670;28;20043;-74
2023/12/23 07:21:40;;;;;;;11.20;2.95;;;;;;;7.96;100.00;100123.31;4989502;28;20041;-72
2023/12/23 07:24:26;;;;;;;19.15;3.72;;;;;;;7.95;100.00;100132.97;4980784;28;20050;-74
2023/12/23 07:27:11;;;;;;;16.13;3.40;;;;;;;7.96;100.00;100129.41;4975005;28;20038;-71
2023/12/23 07:29:57;;;;;;;14.18;3.30;;;;;;;7.96;100.00;100131.22;4977237;28;20034;-73
2023/12/23 07:32:42;;;;;;;15.75;3.47;;;;;;;7.94;100.00;100152.38;4976608;28;20339;-71
2023/12/23 07:35:28;;;;;;;13.52;3.20;;;;;;;7.92;100.00;100130.50;4976404;28;20038;-71
2023/12/23 07:38:14;;;;;;;15.63;3.50;;;;;;;7.92;100.00;100133.13;4976253;28;20050;-72
2023/12/23 07:41:01;;;;;;;13.93;3.83;;;;;;;7.92;100.00;100127.00;4975471;28;20042;-72
2023/12/23 07:43:47;;;;;;;18.55;3.42;;;;;;;7.93;100.00;100144.53;4966369;28;20046;-73
2023/12/23 07:46:32;;;;;;;14.77;2.80;;;;;;;7.94;100.00;100147.09;4976934;28;20054;-74
2023/12/23 07:49:18;;;;;;;16.00;2.97;;;;;;;7.94;100.00;100148.84;4976153;28;20049;-73
2023/12/23 07:52:09;;;;;;;18.27;3.20;;;;;;;7.94;100.00;100155.00;4961856;28;20050;-73
2023/12/23 07:54:56;;;;;;;11.38;2.95;;;;;;;7.94;100.00;100162.91;4974960;28;20057;-73
2023/12/23 07:57:45;;;;;;;17.88;2.85;;;;;;;7.96;100.00;100189.22;4978352;28;20097;-74
2023/12/23 08:00:31;;;;;;;18.48;2.90;;;;;;;7.95;100.00;100169.06;4976452;28;20088;-73
2023/12/23 08:03:17;;;;;;;13.07;2.90;;;;;;;7.93;100.00;100165.59;4973914;28;20050;-73
2023/12/23 08:06:06;;;;;;;14.52;2.83;;;;;;;7.93;100.00;100168.25;4975099;28;20045;-73
2023/12/23 08:08:51;;;;;;;14.20;2.83;;;;;;;7.92;100.00;100182.34;4974715;28;20038;-72
2023/12/23 08:11:37;;;;;;;13.98;3.20;;;;;;;7.91;100.00;100172.75;4972864;28;20121;-73
2023/12/23 08:14:22;;;;;;;11.40;2.88;;;;;;;7.91;100.00;100221.06;4977567;28;20042;-72
2023/12/23 08:17:08;;;;;;;5.07;1.58;;;;;;;7.78;100.00;100190.88;4976121;28;20567;-72
2023/12/23 08:19:53;;;;;;;4.70;1.50;;;;;;;7.53;100.00;100203.34;4958077;28;20047;-72
2023/12/23 08:22:39;;;;;;;5.03;1.60;;;;;;;7.34;100.00;100221.69;4977187;28;20054;-74
2023/12/23 08:25:24;;;;;;;5.70;1.25;;;;;;;7.18;100.00;100184.63;4972577;28;20102;-73
2023/12/23 08:28:10;;;;;;;4.85;1.10;;;;;;;7.02;100.00;100232.63;4972510;28;20057;-73
2023/12/23 08:30:55;;;;;;;4.90;1.25;;;;;;;6.86;100.00;100232.38;4973478;28;20054;-72
2023/12/23 08:33:41;;;;;;;6.28;1.33;;;;;;;6.78;100.00;100234.47;4983866;28;20072;-72
2023/12/23 08:36:26;;;;;;;2.22;1.20;;;;;;;6.74;100.00;100254.78;4971992;28;21014;-72
2023/12/23 08:39:12;;;;;;;2.67;1.20;;;;;;;6.71;100.00;100249.63;4974816;28;21470;-72
2023/12/23 08:41:57;;;;;;;3.47;1.02;;;;;;;6.63;100.00;100262.22;4972288;28;20061;-72
2023/12/23 08:44:42;;;;;;;3.28;1.27;;;;;;;6.48;100.00;100261.06;4972803;28;20076;-72
2023/12/23 08:47:28;;;;;;;3.50;0.90;;;;;;;6.37;100.00;100256.16;4972375;28;20042;-72
2023/12/23 08:50:13;;;;;;;2.38;1.20;;;;;;;6.35;100.00;100258.88;4973672;28;20078;-72
2023/12/23 08:52:59;;;;;;;6.32;1.48;;;;;;;6.47;100.00;100267.19;4972945;28;20157;-72
2023/12/23 08:55:44;;;;;;;6.32;1.50;;;;;;;6.56;100.00;100258.13;4975785;28;20113;-72
2023/12/23 08:58:30;;;;;;;5.38;1.30;;;;;;;6.62;100.00;100253.50;4974305;28;20070;-72
2023/12/23 09:01:15;;;;;;;5.78;1.60;;;;;;;6.69;100.00;100267.25;4973055;28;20046;-72
2023/12/23 09:04:01;;;;;;;6.18;1.17;;;;;;;6.70;100.00;100279.50;4973778;28;20045;-72
2023/12/23 09:06:46;;;;;;;4.97;1.52;;;;;;;6.72;100.00;100266.28;4972647;28;20054;-72
2023/12/23 09:09:31;;;;;;;4.93;1.38;;;;;;;6.74;100.00;100259.19;4972535;28;20074;-72
2023/12/23 09:12:21;;;;;;;12.85;2.53;;;;;;;6.78;100.00;100280.06;4974259;28;20082;-72
2023/12/23 09:15:07;;;;;;;10.90;2.30;;;;;;;6.85;100.00;100266.66;4970718;28;20161;-71
2023/12/23 09:17:52;;;;;;;12.88;2.67;;;;;;;6.92;100.00;100284.78;4980230;28;20042;-71
2023/12/23 09:20:37;;;;;;;7.72;2.33;;;;;;;6.98;100.00;100296.00;4973237;28;20041;-70
2023/12/23 09:23:23;;;;;;;10.52;2.03;;;;;;;7.02;100.00;100305.47;4971794;28;20034;-71
2023/12/23 09:26:08;;;;;;;9.55;1.63;;;;;;;6.97;100.00;100302.19;4971096;28;20561;-71
2023/12/23 09:28:54;;;;;;;4.57;1.40;;;;;;;6.85;100.00;100299.09;4971913;28;20046;-72
2023/12/23 09:31:39;;;;;;;5.80;1.63;;;;;;;6.56;100.00;100313.34;4973308;28;20061;-72
2023/12/23 09:34:25;;;;;;;5.97;1.30;;;;;;;6.34;100.00;100277.34;4971045;28;20058;-72
2023/12/23 09:37:10;;;;;;;4.13;1.48;;;;;;;6.23;100.00;100290.88;4972409;28;20034;-72
2023/12/23 09:39:58;;;;;;;3.60;1.38;;;;;;;6.20;100.00;100291.84;4971183;28;20058;-72
2023/12/23 09:42:44;;;;;;;7.40;1.60;;;;;;;6.27;100.00;100281.97;4970602;28;20157;-72
2023/12/23 09:45:30;;;;;;;10.30;1.92;;;;;;;6.38;100.00;100299.97;4973682;28;20046;-71
2023/12/23 09:48:16;;;;;;;10.27;2.10;;;;;;;6.51;100.00;100296.00;4973119;28;20046;-71
2023/12/23 09:51:01;;;;;;;9.50;2.20;;;;;;;6.64;100.00;100280.59;4970781;28;20047;-71
2023/12/23 09:53:47;;;;;;;8.80;1.70;;;;;;;6.72;100.00;100298.72;4973891;28;20044;-72
2023/12/23 09:56:34;;;;;;;14.15;2.30;;;;;;;6.82;100.00;100301.88;4959947;28;20150;-71
2023/12/23 09:59:20;;;;;;;17.27;2.38;;;;;;;6.90;100.00;100302.41;4972738;28;20070;-71
2023/12/23 10:02:05;;;;;;;23.48;2.97;;;;;;;7.03;100.00;100291.41;4977751;28;21714;-71
2023/12/23 10:04:53;;;;;;;18.35;3.20;;;;;;;7.16;100.00;100290.00;4978840;28;20046;-71
2023/12/23 10:07:38;;;;;;;17.90;3.22;;;;;;;7.27;100.00;100280.81;4978883;28;20142;-72
2023/12/23 10:10:31;;;;;;;10.43;2.60;;;;;;;7.38;100.00;100281.22;4979543;28;20069;-72
2023/12/23 10:13:16;;;;;;;21.55;3.38;;;;;;;7.47;100.00;100291.38;4979882;28;20042;-71
2023/12/23 10:16:03;;;;;;;8.70;2.83;;;;;;;7.58;100.00;100287.47;4980836;28;20712;-72
2023/12/23 10:18:48;;;;;;;14.88;2.85;;;;;;;7.66;100.00;100287.13;4979694;28;20042;-71
2023/12/23 10:21:33;;;;;;;17.65;2.83;;;;;;;7.72;100.00;100294.75;4977693;28;20181;-72
2023/12/23 10:24:19;;;;;;;15.93;2.88;;;;;;;7.75;100.00;100294.66;4974773;28;20457;-72
2023/12/23 10:27:05;;;;;;;16.67;3.20;;;;;;;7.77;100.00;100305.97;4974990;28;20405;-72
2023/12/23 10:29:53;;;;;;;15.35;3.17;;;;;;;7.77;100.00;100300.69;4977395;28;20133;-72
2023/12/23 10:32:39;;;;;;;20.40;2.92;;;;;;;7.76;100.00;100317.44;4977233;28;20042;-73
2023/12/23 10:35:29;;;;;;;13.73;3.08;;;;;;;7.74;100.00;100314.03;4960997;28;20305;-73
2023/12/23 10:38:22;;;;;;;20.45;3.53;;;;;;;7.74;100.00;100312.22;4972985;28;20034;-74
2023/12/23 10:41:10;;;;;;;17.77;2.60;;;;;;;7.75;100.00;100313.09;4976874;28;20139;-74
2023/12/23 10:43:56;;;;;;;15.20;2.72;;;;;;;7.74;100.00;100309.59;4979098;28;20046;-76
2023/12/23 10:46:43;;;;;;;18.42;2.47;;;;;;;7.77;100.00;100289.28;4980664;28;20042;-73
2023/12/23 10:49:28;;;;;;;11.50;2.25;;;;;;;7.80;100.00;100295.28;4970597;28;20054;-73
2023/12/23 10:52:14;;;;;;;11.57;2.17;;;;;;;7.80;100.00;100300.56;4969755;28;20547;-74
2023/12/23 10:55:02;;;;;;;20.08;2.90;;;;;;;7.82;100.00;100301.38;4971443;28;20035;-73
2023/12/23 10:57:48;;;;;;;16.30;2.88;;;;;;;7.82;100.00;100317.19;4988391;28;20077;-72
2023/12/23 11:00:37;;;;;;;14.95;2.38;;;;;;;7.82;100.00;100309.28;4985445;28;20074;-72
2023/12/23 11:03:24;;;;;;;12.15;2.38;;;;;;;7.83;100.00;100312.75;4972892;28;20046;-73
2023/12/23 11:06:10;;;;;;;11.32;2.08;;;;;;;7.84;100.00;100312.69;4975052;28;20604;-73
2023/12/23 11:08:58;;;;;;;17.13;2.58;;;;;;;7.86;100.00;100316.13;4978856;28;20502;-73
2023/12/23 11:11:44;;;;;;;15.77;2.88;;;;;;;7.88;100.00;100326.59;4954706;28;20042;-73
2023/12/23 11:14:30;;;;;;;13.15;3.05;;;;;;;7.88;100.00;100332.75;4983251;28;20180;-73
2023/12/23 11:17:25;;;;;;;10.18;2.33;;;;;;;7.87;100.00;100314.34;4975812;28;20034;-72
2023/12/23 11:20:33;;;;;;;11.32;2.38;;;;;;;7.86;100.00;100310.84;4971644;28;21019;-73
2023/12/23 11:23:37;;;;;;;17.60;2.67;;;;;;;7.91;100.00;100302.75;4968943;28;20038;-73
2023/12/23 11:26:43;;;;;;;16.80;2.85;;;;;;;7.97;100.00;100320.94;4981521;28;20129;-75
2023/12/23 11:29:28;;;;;;;10.88;2.25;;;;;;;8.02;100.00;100305.78;4977900;28;20050;-74
2023/12/23 11:32:18;;;;;;;9.75;2.30;;;;;;;8.06;100.00;100311.75;4982029;28;21258;-74
2023/12/23 11:35:13;;;;;;;14.05;2.33;;;;;;;8.11;100.00;100314.19;4982132;28;20046;-73
2023/12/23 11:38:01;;;;;;;17.27;2.35;;;;;;;8.13;100.00;100325.56;4986436;28;20046;-73
2023/12/23 11:40:50;;;;;;;11.02;2.20;;;;;;;8.17;100.00;100311.28;4983450;28;20212;-75
2023/12/23 11:43:38;;;;;;;14.40;2.28;;;;;;;8.22;100.00;100304.03;4976840;28;20034;-73
2023/12/23 11:46:24;;;;;;;9.40;2.42;;;;;;;8.24;100.00;100306.63;4973205;28;20107;-75
2023/12/23 11:49:10;;;;;;;10.75;2.22;;;;;;;8.29;100.00;100323.94;4973763;28;20097;-74
2023/12/23 11:51:55;;;;;;;13.93;2.38;;;;;;;8.33;100.00;100310.63;4979067;28;20369;-76
2023/12/23 11:54:41;;;;;;;8.70;1.92;;;;;;;8.36;100.00;100313.13;4980697;28;20055;-76
2023/12/23 11:57:27;;;;;;;9.68;1.98;;;;;;;8.36;100.00;100326.31;4980388;28;20042;-75
2023/12/23 12:00:13;;;;;;;9.13;2.20;;;;;;;8.36;100.00;100321.91;4991758;28;20300;-75
2023/12/23 12:03:01;;;;;;;8.68;2.22;;;;;;;8.37;100.00;100323.63;4974833;28;20085;-76
2023/12/23 12:05:46;;;;;;;11.05;2.55;;;;;;;8.38;100.00;100324.44;4972365;28;20061;-75
2023/12/23 12:08:32;;;;;;;7.07;2.40;;;;;;;8.38;100.00;100330.59;4971185;28;20331;-75
2023/12/23 12:11:22;;;;;;;10.75;2.05;;;;;;;8.38;100.00;100342.91;4973627;28;20390;-75
2023/12/23 12:14:10;;;;;;;7.20;2.20;;;;;;;8.37;100.00;100346.50;4960750;28;20038;-76
2023/12/23 12:16:55;;;;;;;13.25;2.03;;;;;;;8.39;100.00;100352.56;4971859;28;20215;-76
2023/12/23 12:19:41;;;;;;;14.32;2.05;;;;;;;8.39;100.00;100342.84;4975797;28;20570;-76
2023/12/23 12:22:26;;;;;;;9.98;2.50;;;;;;;8.40;100.00;100347.19;4979434;28;20050;-75
2023/12/23 12:25:12;;;;;;;21.15;3.03;;;;;;;8.40;100.00;100334.00;4959948;28;20042;-76
2023/12/23 12:27:58;;;;;;;12.57;2.60;;;;;;;8.40;100.00;100352.47;4972953;28;20050;-75
2023/12/23 12:30:43;;;;;;;11.57;2.17;;;;;;;8.42;100.00;100344.50;4977497;28;20476;-75
2023/12/23 12:33:33;;;;;;;13.15;2.55;;;;;;;8.43;100.00;100354.13;4978685;28;20052;-74
2023/12/23 12:36:20;;;;;;;11.05;1.88;;;;;;;8.42;100.00;100342.75;4983038;28;20069;-74
2023/12/23 12:39:06;;;;;;;14.50;2.67;;;;;;;8.44;100.00;100350.56;4962867;28;20038;-75
2023/12/23 12:41:51;;;;;;;11.73;1.77;;;;;;;8.43;100.00;100377.88;4959588;28;20050;-76
2023/12/23 12:44:37;;;;;;;9.23;2.33;;;;;;;8.42;100.00;100366.47;4970722;28;20184;-76
2023/12/23 12:47:23;;;;;;;13.50;2.25;;;;;;;8.41;100.00;100362.09;4985445;28;20042;-75
2023/12/23 12:50:09;;;;;;;10.85;2.15;;;;;;;8.43;100.00;100362.91;4974482;28;20182;-74